Time;durP1;ratioP1;P1;durP2;ratioP2;P2;SDS_P1;SDS_P2;PMS_P1;PMS_P2;Temp;Humidity;BMP_temperature;BMP_pressure;BME280_temperature;BME280_humidity;BME280_pressure;Samples;Min_cycle;Max_cycle;Signal;HPM_P1;HPM_P2
2021/11/14 00:00:27;;;;;;;;;;;;;;;;;;1017529;29;1069;-22
2021/11/14 00:00:59;;;;;;;;;;;;;;;;;;1017594;28;1514;-22
2021/11/14 00:01:30;;;;;;;;;;;;;;;;;;1026137;28;1158;-22
2021/11/14 00:02:00;;;;;;;;;;;;;;;;;;1026137;28;1033;-21
2021/11/14 00:02:31;;;;;;;;;;;;;;;;;;1026226;28;1934;-22
2021/11/14 00:03:02;;;;;;;;;;;;;;;;;;1026105;28;1026;-24
2021/11/14 00:03:34;;;;;;;;;;;;;;;;;;1021430;29;1101;-22
2021/11/14 00:04:06;;;;;;;;;;;;;;;;;;1021301;29;1269;-21
2021/11/14 00:04:36;;;;;;;;;;;;;;;;;;1021499;29;1081;-22
2021/11/14 00:05:07;;;;;;;;;;;;;;;;;;1022069;28;1289;-22
2021/11/14 00:05:39;;;;;;;;;;;;;;;;;;1026034;28;902;-21
2021/11/14 00:06:09;;;;;;;;;;;;;;;;;;1026230;28;931;-22
2021/11/14 00:06:42;;;;;;;;;;;;;;;;;;1026028;28;775;-21
2021/11/14 00:07:13;;;;;;;;;;;;;;;;;;1026259;28;963;-21
2021/11/14 00:07:44;;;;;;;;;;;;;;;;;;1026242;28;1490;-22
2021/11/14 00:08:15;;;;;;;;;;;;;;;;;;1026071;28;1116;-21
2021/11/14 00:08:47;;;;;;;;;;;;;;;;;;1021616;28;1138;-22
2021/11/14 00:09:17;;;;;;;;;;;;;;;;;;1021319;29;1026;-22
2021/11/14 00:09:49;;;;;;;;;;;;;;;;;;1013757;29;1069;-22
2021/11/14 00:10:20;;;;;;;;;;;;;;;;;;1013887;29;1095;-21
2021/11/14 00:10:53;;;;;;;;;;;;;;;;;;1017368;29;1062;-21
2021/11/14 00:11:25;;;;;;;;;;;;;;;;;;1009578;29;1037;-21
2021/11/14 00:11:55;;;;;;;;;;;;;;;;;;1009729;29;982;-22
2021/11/14 00:12:26;;;;;;;;;;;;;;;;;;1009822;29;1100;-22
2021/11/14 00:12:56;;;;;;;;;;;;;;;;;;1010174;28;856;-23
2021/11/14 00:13:27;;;;;;;;;;;;;;;;;;1026224;28;925;-22
2021/11/14 00:13:58;;;;;;;;;;;;;;;;;;1026324;28;855;-22
2021/11/14 00:14:29;;;;;;;;;;;;;;;;;;1025939;28;1437;-22
2021/11/14 00:14:59;;;;;;;;;;;;;;;;;;1026159;28;949;-22
2021/11/14 00:15:35;;;;;;;;;;;;;;;;;;1026310;28;1038;-21
2021/11/14 00:16:12;;;;;;;;;;;;;;;;;;1026269;28;799;-21
2021/11/14 00:16:43;;;;;;;;;;;;;;;;;;1026163;28;946;-22
2021/11/14 00:17:13;;;;;;;;;;;;;;;;;;1026269;28;929;-22
2021/11/14 00:17:44;;;;;;;;;;;;;;;;;;1017371;29;1045;-22
2021/11/14 00:18:15;;;;;;;;;;;;;;;;;;1013540;29;981;-22
2021/11/14 00:18:46;;;;;;;;;;;;;;;;;;1013479;29;1077;-22
2021/11/14 00:19:17;;;;;;;;;;;;;;;;;;1013724;29;1077;-24
2021/11/14 00:19:48;;;;;;;;;;;;;;;;;;1009809;29;1019;-21
2021/11/14 00:20:22;;;;;;;;;;;;;;;;;;1013689;29;1008;-22
2021/11/14 00:20:52;;;;;;;;;;;;;;;;;;1013637;29;1033;-21
2021/11/14 00:21:24;;;;;;;;;;;;;;;;;;1009997;29;1423;-22
2021/11/14 00:21:55;;;;;;;;;;;;;;;;;;1014626;29;1009;-22
2021/11/14 00:22:25;;;;;;;;;;;;;;;;;;1017394;29;1003;-22
2021/11/14 00:22:56;;;;;;;;;;;;;;;;;;1013547;29;1934;-22
2021/11/14 00:23:27;;;;;;;;;;;;;;;;;;1017607;29;1129;-22
2021/11/14 00:23:57;;;;;;;;;;;;;;;;;;1017300;28;1097;-22
2021/11/14 00:24:28;;;;;;;;;;;;;;;;;;1025720;28;811;-21
2021/11/14 00:25:00;;;;;;;;;;;;;;;;;;1026210;28;856;-21
2021/11/14 00:25:31;;;;;;;;;;;;;;;;;;1025998;28;1650;-22
2021/11/14 00:26:02;;;;;;;;;;;;;;;;;;1017705;29;1045;-22
2021/11/14 00:26:32;;;;;;;;;;;;;;;;;;1017172;29;1235;-22
2021/11/14 00:27:03;;;;;;;;;;;;;;;;;;1017511;29;1009;-21
2021/11/14 00:27:33;;;;;;;;;;;;;;;;;;1017439;28;1160;-21
2021/11/14 00:28:04;;;;;;;;;;;;;;;;;;1026268;28;1688;-22
2021/11/14 00:28:42;;;;;;;;;;;;;;;;;;1021870;29;1149;-21
2021/11/14 00:29:15;;;;;;;;;;;;;;;;;;1021500;29;1390;-22
2021/11/14 00:29:45;;;;;;;;;;;;;;;;;;1021744;29;1355;-22
2021/11/14 00:30:16;;;;;;;;;;;;;;;;;;1017802;29;1122;-22
2021/11/14 00:30:47;;;;;;;;;;;;;;;;;;1013297;29;933;-22
2021/11/14 00:31:19;;;;;;;;;;;;;;;;;;1013837;29;1014;-22
2021/11/14 00:31:50;;;;;;;;;;;;;;;;;;1017161;29;1492;-21
2021/11/14 00:32:20;;;;;;;;;;;;;;;;;;1017750;29;993;-22
2021/11/14 00:32:52;;;;;;;;;;;;;;;;;;1021469;29;1344;-21
2021/11/14 00:33:25;;;;;;;;;;;;;;;;;;1017501;29;1159;-23
2021/11/14 00:33:55;;;;;;;;;;;;;;;;;;1017504;29;1127;-22
2021/11/14 00:34:26;;;;;;;;;;;;;;;;;;1021587;29;1158;-22
2021/11/14 00:34:56;;;;;;;;;;;;;;;;;;1021833;28;1214;-22
2021/11/14 00:35:26;;;;;;;;;;;;;;;;;;1026279;28;882;-22
2021/11/14 00:35:57;;;;;;;;;;;;;;;;;;1025946;28;1078;-23
2021/11/14 00:36:29;;;;;;;;;;;;;;;;;;1021498;29;973;-22
2021/11/14 00:37:01;;;;;;;;;;;;;;;;;;1021427;29;858;-22
2021/11/14 00:37:34;;;;;;;;;;;;;;;;;;1017523;29;1023;-22
2021/11/14 00:38:05;;;;;;;;;;;;;;;;;;1018030;29;959;-21
2021/11/14 00:38:35;;;;;;;;;;;;;;;;;;1021417;29;926;-22
2021/11/14 00:39:08;;;;;;;;;;;;;;;;;;1022026;28;968;-21
2021/11/14 00:39:39;;;;;;;;;;;;;;;;;;1026153;28;944;-22
2021/11/14 00:40:11;;;;;;;;;;;;;;;;;;1021193;29;1083;-22
2021/11/14 00:40:42;;;;;;;;;;;;;;;;;;1021548;29;926;-22
2021/11/14 00:41:12;;;;;;;;;;;;;;;;;;1017285;29;1235;-22
2021/11/14 00:41:43;;;;;;;;;;;;;;;;;;1017907;28;990;-22
2021/11/14 00:42:14;;;;;;;;;;;;;;;;;;1025422;28;1259;-23
2021/11/14 00:42:45;;;;;;;;;;;;;;;;;;1025914;28;1907;-23
2021/11/14 00:43:16;;;;;;;;;;;;;;;;;;1030070;28;835;-22
2021/11/14 00:43:46;;;;;;;;;;;;;;;;;;1021343;29;973;-22
2021/11/14 00:44:17;;;;;;;;;;;;;;;;;;1021192;29;1022;-22
2021/11/14 00:44:48;;;;;;;;;;;;;;;;;;1021103;29;1280;-22
2021/11/14 00:45:19;;;;;;;;;;;;;;;;;;1021414;28;1060;-22
2021/11/14 00:45:49;;;;;;;;;;;;;;;;;;1030050;28;1147;-23
2021/11/14 00:46:20;;;;;;;;;;;;;;;;;;1029619;28;1243;-21
2021/11/14 00:46:56;;;;;;;;;;;;;;;;;;1029013;28;1069;-21
2021/11/14 00:47:26;;;;;;;;;;;;;;;;;;1030069;28;1292;-22
2021/11/14 00:47:58;;;;;;;;;;;;;;;;;;1029828;28;953;-22
2021/11/14 00:48:28;;;;;;;;;;;;;;;;;;1030081;28;1017;-22
2021/11/14 00:48:59;;;;;;;;;;;;;;;;;;1029844;28;1000;-20
2021/11/14 00:49:29;;;;;;;;;;;;;;;;;;1030067;28;957;-22
2021/11/14 00:50:05;;;;;;;;;;;;;;;;;;1030189;28;1006;-22
2021/11/14 00:50:38;;;;;;;;;;;;;;;;;;1029989;28;942;-22
2021/11/14 00:51:13;;;;;;;;;;;;;;;;;;1030024;28;776;-23
2021/11/14 00:51:43;;;;;;;;;;;;;;;;;;1029767;28;1490;-21
2021/11/14 00:52:14;;;;;;;;;;;;;;;;;;1029959;28;1039;-21
2021/11/14 00:52:45;;;;;;;;;;;;;;;;;;1030253;28;950;-21
2021/11/14 00:53:17;;;;;;;;;;;;;;;;;;1029452;28;1348;-21
2021/11/14 00:53:48;;;;;;;;;;;;;;;;;;1030268;28;943;-22
2021/11/14 00:54:18;;;;;;;;;;;;;;;;;;1029915;28;966;-22
2021/11/14 00:54:49;;;;;;;;;;;;;;;;;;1025092;28;984;-23
2021/11/14 00:55:20;;;;;;;;;;;;;;;;;;1025409;28;911;-22
2021/11/14 00:55:51;;;;;;;;;;;;;;;;;;1024871;28;1665;-22
2021/11/14 00:56:22;;;;;;;;;;;;;;;;;;1021149;29;975;-23
2021/11/14 00:56:52;;;;;;;;;;;;;;;;;;1021307;29;1130;-22
2021/11/14 00:57:22;;;;;;;;;;;;;;;;;;1021202;29;907;-22
2021/11/14 00:57:53;;;;;;;;;;;;;;;;;;1017519;29;1001;-22
2021/11/14 00:58:25;;;;;;;;;;;;;;;;;;1025617;28;946;-22
2021/11/14 00:58:56;;;;;;;;;;;;;;;;;;1021300;29;963;-21
2021/11/14 00:59:26;;;;;;;;;;;;;;;;;;1021726;28;1113;-21
2021/11/14 00:59:57;;;;;;;;;;;;;;;;;;1025534;28;1067;-23
2021/11/14 01:00:28;;;;;;;;;;;;;;;;;;1025360;28;794;-21
2021/11/14 01:00:59;;;;;;;;;;;;;;;;;;1029952;28;1001;-22
2021/11/14 01:01:29;;;;;;;;;;;;;;;;;;1029765;28;978;-22
2021/11/14 01:02:00;;;;;;;;;;;;;;;;;;1024454;28;974;-22
2021/11/14 01:02:30;;;;;;;;;;;;;;;;;;1025078;28;1052;-23
2021/11/14 01:03:02;;;;;;;;;;;;;;;;;;1025385;28;1970;-21
2021/11/14 01:03:32;;;;;;;;;;;;;;;;;;1025411;28;832;-22
2021/11/14 01:04:03;;;;;;;;;;;;;;;;;;1030229;28;946;-21
2021/11/14 01:04:36;;;;;;;;;;;;;;;;;;1029942;28;977;-22
2021/11/14 01:05:07;;;;;;;;;;;;;;;;;;1029981;28;961;-21
2021/11/14 01:05:41;;;;;;;;;;;;;;;;;;1029819;28;1054;-21
2021/11/14 01:06:11;;;;;;;;;;;;;;;;;;1030134;28;1033;-21
2021/11/14 01:06:41;;;;;;;;;;;;;;;;;;1029937;28;863;-22
2021/11/14 01:07:12;;;;;;;;;;;;;;;;;;1030191;28;908;-21
2021/11/14 01:07:42;;;;;;;;;;;;;;;;;;1029520;28;1467;-23
2021/11/14 01:08:13;;;;;;;;;;;;;;;;;;1025482;28;1115;-22
2021/11/14 01:08:47;;;;;;;;;;;;;;;;;;1025443;28;1245;-22
2021/11/14 01:09:17;;;;;;;;;;;;;;;;;;1025601;28;1072;-21
2021/11/14 01:09:48;;;;;;;;;;;;;;;;;;1026082;28;917;-23
2021/11/14 01:10:20;;;;;;;;;;;;;;;;;;1029547;28;1329;-21
2021/11/14 01:10:51;;;;;;;;;;;;;;;;;;1029827;28;1854;-23
2021/11/14 01:11:21;;;;;;;;;;;;;;;;;;1029675;28;1277;-22
2021/11/14 01:11:52;;;;;;;;;;;;;;;;;;1029738;28;1076;-21
2021/11/14 01:12:23;;;;;;;;;;;;;;;;;;1029137;28;1128;-22
2021/11/14 01:12:54;;;;;;;;;;;;;;;;;;1029076;28;997;-22
2021/11/14 01:13:25;;;;;;;;;;;;;;;;;;1029514;28;1175;-21
2021/11/14 01:13:56;;;;;;;;;;;;;;;;;;1016566;29;1364;-21
2021/11/14 01:14:26;;;;;;;;;;;;;;;;;;1013193;29;1180;-23
2021/11/14 01:14:57;;;;;;;;;;;;;;;;;;1013506;29;1319;-22
2021/11/14 01:15:27;;;;;;;;;;;;;;;;;;1013230;29;1057;-22
2021/11/14 01:15:59;;;;;;;;;;;;;;;;;;1029893;28;966;-21
2021/11/14 01:16:29;;;;;;;;;;;;;;;;;;1030092;28;1002;-22
2021/11/14 01:17:00;;;;;;;;;;;;;;;;;;1029532;28;1374;-22
2021/11/14 01:17:30;;;;;;;;;;;;;;;;;;1029989;28;966;-22
2021/11/14 01:18:01;;;;;;;;;;;;;;;;;;1024959;28;1464;-21
2021/11/14 01:18:34;;;;;;;;;;;;;;;;;;1025020;28;972;-22
2021/11/14 01:19:05;;;;;;;;;;;;;;;;;;1025101;28;909;-23
2021/11/14 01:19:35;;;;;;;;;;;;;;;;;;1025743;28;1184;-23
2021/11/14 01:20:12;;;;;;;;;;;;;;;;;;1029744;28;1008;-23
2021/11/14 01:20:43;;;;;;;;;;;;;;;;;;1029917;28;1436;-21
2021/11/14 01:21:17;;;;;;;;;;;;;;;;;;1029772;28;997;-22
2021/11/14 01:21:48;;;;;;;;;;;;;;;;;;1021421;29;989;-22
2021/11/14 01:22:18;;;;;;;;;;;;;;;;;;1021011;29;1015;-22
2021/11/14 01:22:49;;;;;;;;;;;;;;;;;;1021223;29;1964;-22
2021/11/14 01:23:20;;;;;;;;;;;;;;;;;;1020643;28;1240;-22
2021/11/14 01:23:54;;;;;;;;;;;;;;;;;;1024896;28;969;-23
2021/11/14 01:24:24;;;;;;;;;;;;;;;;;;1017230;29;1026;-22
2021/11/14 01:24:54;;;;;;;;;;;;;;;;;;1017113;29;1096;-23
2021/11/14 01:25:25;;;;;;;;;;;;;;;;;;1017522;29;914;-22
2021/11/14 01:25:57;;;;;;;;;;;;;;;;;;1018097;28;1122;-21
2021/11/14 01:26:27;;;;;;;;;;;;;;;;;;1025548;28;987;-22
2021/11/14 01:26:58;;;;;;;;;;;;;;;;;;1025755;28;873;-23
2021/11/14 01:27:28;;;;;;;;;;;;;;;;;;1025940;28;1102;-22
2021/11/14 01:27:59;;;;;;;;;;;;;;;;;;1030038;28;874;-22
2021/11/14 01:28:29;;;;;;;;;;;;;;;;;;1029730;28;893;-22
2021/11/14 01:29:00;;;;;;;;;;;;;;;;;;1029728;28;1539;-21
2021/11/14 01:29:30;;;;;;;;;;;;;;;;;;1029640;28;929;-22
2021/11/14 01:30:02;;;;;;;;;;;;;;;;;;1029936;28;1325;-22
2021/11/14 01:30:34;;;;;;;;;;;;;;;;;;1029891;28;951;-22
2021/11/14 01:31:05;;;;;;;;;;;;;;;;;;1029987;28;1055;-22
2021/11/14 01:31:35;;;;;;;;;;;;;;;;;;1029714;28;985;-22
2021/11/14 01:32:06;;;;;;;;;;;;;;;;;;1029399;28;958;-22
2021/11/14 01:32:38;;;;;;;;;;;;;;;;;;1029031;28;1577;-22
2021/11/14 01:33:09;;;;;;;;;;;;;;;;;;1024887;28;1018;-21
2021/11/14 01:33:41;;;;;;;;;;;;;;;;;;1021350;29;1006;-22
2021/11/14 01:34:11;;;;;;;;;;;;;;;;;;1016715;29;1533;-22
2021/11/14 01:34:42;;;;;;;;;;;;;;;;;;1016996;29;1302;-22
2021/11/14 01:35:13;;;;;;;;;;;;;;;;;;1017296;29;978;-22
2021/11/14 01:35:44;;;;;;;;;;;;;;;;;;1021144;28;1213;-21
2021/11/14 01:36:15;;;;;;;;;;;;;;;;;;1021099;29;1063;-22
2021/11/14 01:36:45;;;;;;;;;;;;;;;;;;1021150;29;1623;-23
2021/11/14 01:37:15;;;;;;;;;;;;;;;;;;1021024;29;1071;-21
2021/11/14 01:37:47;;;;;;;;;;;;;;;;;;1021184;29;977;-23
2021/11/14 01:38:17;;;;;;;;;;;;;;;;;;1016662;29;1216;-22
2021/11/14 01:38:49;;;;;;;;;;;;;;;;;;1013052;29;1344;-22
2021/11/14 01:39:22;;;;;;;;;;;;;;;;;;1013087;29;1153;-21
2021/11/14 01:39:52;;;;;;;;;;;;;;;;;;1013810;29;919;-22
2021/11/14 01:40:28;;;;;;;;;;;;;;;;;;1010569;29;1142;-21
2021/11/14 01:41:03;;;;;;;;;;;;;;;;;;1021972;29;835;-22
2021/11/14 01:41:34;;;;;;;;;;;;;;;;;;1021714;29;1648;-22
2021/11/14 01:42:05;;;;;;;;;;;;;;;;;;1021988;29;1054;-22
2021/11/14 01:42:35;;;;;;;;;;;;;;;;;;1021666;29;1970;-21
2021/11/14 01:43:07;;;;;;;;;;;;;;;;;;1013332;29;1198;-23
2021/11/14 01:43:40;;;;;;;;;;;;;;;;;;1013113;29;1041;-21
2021/11/14 01:44:13;;;;;;;;;;;;;;;;;;1013259;29;1067;-21
2021/11/14 01:44:44;;;;;;;;;;;;;;;;;;1015037;29;1102;-22
2021/11/14 01:45:14;;;;;;;;;;;;;;;;;;1022065;29;991;-22
2021/11/14 01:45:45;;;;;;;;;;;;;;;;;;1021805;29;839;-22
2021/11/14 01:46:16;;;;;;;;;;;;;;;;;;1012929;29;1473;-21
2021/11/14 01:46:47;;;;;;;;;;;;;;;;;;1013452;29;1086;-24
2021/11/14 01:47:17;;;;;;;;;;;;;;;;;;1013420;29;1459;-21
2021/11/14 01:47:48;;;;;;;;;;;;;;;;;;1013215;29;1292;-22
2021/11/14 01:48:18;;;;;;;;;;;;;;;;;;1021914;29;1568;-22
2021/11/14 01:48:50;;;;;;;;;;;;;;;;;;1021543;29;1164;-21
2021/11/14 01:49:20;;;;;;;;;;;;;;;;;;1013275;29;1021;-22
2021/11/14 01:49:50;;;;;;;;;;;;;;;;;;1013412;29;964;-21
2021/11/14 01:50:21;;;;;;;;;;;;;;;;;;1012923;29;1533;-22
2021/11/14 01:50:51;;;;;;;;;;;;;;;;;;1013443;29;1014;-21
2021/11/14 01:51:22;;;;;;;;;;;;;;;;;;1021647;29;1215;-21
2021/11/14 01:51:53;;;;;;;;;;;;;;;;;;1021600;29;1092;-22
2021/11/14 01:52:25;;;;;;;;;;;;;;;;;;1022171;29;975;-21
2021/11/14 01:52:56;;;;;;;;;;;;;;;;;;1021800;29;1030;-22
2021/11/14 01:53:26;;;;;;;;;;;;;;;;;;1021959;29;835;-21
2021/11/14 01:53:57;;;;;;;;;;;;;;;;;;1021820;29;871;-21
2021/11/14 01:54:29;;;;;;;;;;;;;;;;;;1022004;29;929;-22
2021/11/14 01:54:59;;;;;;;;;;;;;;;;;;1013432;29;919;-21
2021/11/14 01:55:30;;;;;;;;;;;;;;;;;;1013319;29;937;-24
2021/11/14 01:56:02;;;;;;;;;;;;;;;;;;1013236;29;962;-21
2021/11/14 01:56:32;;;;;;;;;;;;;;;;;;1014202;29;891;-23
2021/11/14 01:57:03;;;;;;;;;;;;;;;;;;1022016;29;849;-22
2021/11/14 01:57:33;;;;;;;;;;;;;;;;;;1022021;29;1022;-22
2021/11/14 01:58:04;;;;;;;;;;;;;;;;;;1017361;29;1226;-23
2021/11/14 01:58:35;;;;;;;;;;;;;;;;;;1017642;29;938;-21
2021/11/14 01:59:07;;;;;;;;;;;;;;;;;;1017439;29;940;-22
2021/11/14 01:59:37;;;;;;;;;;;;;;;;;;1017639;29;1503;-23
2021/11/14 02:00:11;;;;;;;;;;;;;;;;;;1021880;29;1056;-22
2021/11/14 02:00:44;;;;;;;;;;;;;;;;;;1021818;29;1145;-21
2021/11/14 02:01:23;;;;;;;;;;;;;;;;;;1021942;29;846;-22
2021/11/14 02:01:53;;;;;;;;;;;;;;;;;;1021894;29;887;-22
2021/11/14 02:02:24;;;;;;;;;;;;;;;;;;1021789;29;989;-21
2021/11/14 02:02:55;;;;;;;;;;;;;;;;;;1021841;29;1907;-22
2021/11/14 02:03:27;;;;;;;;;;;;;;;;;;1021578;29;1350;-21
2021/11/14 02:04:01;;;;;;;;;;;;;;;;;;1021914;29;1089;-23
2021/11/14 02:04:32;;;;;;;;;;;;;;;;;;1021828;29;1385;-22
2021/11/14 02:05:03;;;;;;;;;;;;;;;;;;1021749;29;1002;-22
2021/11/14 02:05:33;;;;;;;;;;;;;;;;;;1022003;29;968;-21
2021/11/14 02:06:06;;;;;;;;;;;;;;;;;;1021790;29;1197;-21
2021/11/14 02:06:39;;;;;;;;;;;;;;;;;;1021815;29;854;-23
2021/11/14 02:07:11;;;;;;;;;;;;;;;;;;1021901;29;1306;-22
2021/11/14 02:07:41;;;;;;;;;;;;;;;;;;1021657;29;888;-21
2021/11/14 02:08:12;;;;;;;;;;;;;;;;;;1021888;29;1001;-21
2021/11/14 02:08:42;;;;;;;;;;;;;;;;;;1019740;29;909;-21
2021/11/14 02:09:14;;;;;;;;;;;;;;;;;;1021647;29;1081;-21
2021/11/14 02:09:45;;;;;;;;;;;;;;;;;;1021767;29;922;-22
2021/11/14 02:10:15;;;;;;;;;;;;;;;;;;1021909;29;955;-22
2021/11/14 02:10:46;;;;;;;;;;;;;;;;;;1021594;29;962;-21
2021/11/14 02:11:17;;;;;;;;;;;;;;;;;;1022004;29;938;-22
2021/11/14 02:11:47;;;;;;;;;;;;;;;;;;1021634;29;954;-22
2021/11/14 02:12:18;;;;;;;;;;;;;;;;;;1021997;29;922;-22
2021/11/14 02:12:49;;;;;;;;;;;;;;;;;;1021686;29;975;-22
2021/11/14 02:13:19;;;;;;;;;;;;;;;;;;1021581;28;903;-22
2021/11/14 02:13:50;;;;;;;;;;;;;;;;;;1017020;29;1007;-22
2021/11/14 02:14:22;;;;;;;;;;;;;;;;;;1017185;29;1152;-22
2021/11/14 02:14:53;;;;;;;;;;;;;;;;;;1017313;29;1041;-21
2021/11/14 02:15:23;;;;;;;;;;;;;;;;;;1017354;29;851;-21
2021/11/14 02:15:54;;;;;;;;;;;;;;;;;;1021755;28;860;-21
2021/11/14 02:16:25;;;;;;;;;;;;;;;;;;1021930;29;969;-22
2021/11/14 02:16:56;;;;;;;;;;;;;;;;;;1021509;29;851;-22
2021/11/14 02:17:27;;;;;;;;;;;;;;;;;;1021013;29;1002;-21
2021/11/14 02:17:58;;;;;;;;;;;;;;;;;;1013244;29;1295;-22
2021/11/14 02:18:31;;;;;;;;;;;;;;;;;;1013038;29;910;-22
2021/11/14 02:19:02;;;;;;;;;;;;;;;;;;1012955;29;979;-22
2021/11/14 02:19:32;;;;;;;;;;;;;;;;;;1013718;29;872;-21
2021/11/14 02:20:05;;;;;;;;;;;;;;;;;;1013097;29;1051;-22
2021/11/14 02:20:38;;;;;;;;;;;;;;;;;;1005384;29;1212;-23
2021/11/14 02:21:09;;;;;;;;;;;;;;;;;;1009079;29;1179;-22
2021/11/14 02:21:39;;;;;;;;;;;;;;;;;;1010081;29;1166;-22
2021/11/14 02:22:09;;;;;;;;;;;;;;;;;;1013007;29;1324;-22
2021/11/14 02:22:40;;;;;;;;;;;;;;;;;;1021639;29;1918;-21
2021/11/14 02:23:13;;;;;;;;;;;;;;;;;;1021546;29;1093;-22
2021/11/14 02:23:47;;;;;;;;;;;;;;;;;;1021571;29;1005;-23
2021/11/14 02:24:17;;;;;;;;;;;;;;;;;;1022035;29;1137;-22
2021/11/14 02:24:48;;;;;;;;;;;;;;;;;;1021529;29;981;-22
2021/11/14 02:25:19;;;;;;;;;;;;;;;;;;1021659;29;892;-22
2021/11/14 02:25:50;;;;;;;;;;;;;;;;;;1021755;29;855;-22
2021/11/14 02:26:23;;;;;;;;;;;;;;;;;;1021857;29;1379;-21
2021/11/14 02:26:53;;;;;;;;;;;;;;;;;;1021612;29;993;-21
2021/11/14 02:27:23;;;;;;;;;;;;;;;;;;1021698;29;1058;-21
2021/11/14 02:27:54;;;;;;;;;;;;;;;;;;1021732;29;907;-21
2021/11/14 02:28:25;;;;;;;;;;;;;;;;;;1021694;29;972;-21
2021/11/14 02:28:56;;;;;;;;;;;;;;;;;;1021642;29;973;-21
2021/11/14 02:29:26;;;;;;;;;;;;;;;;;;1021599;29;1009;-22
2021/11/14 02:29:57;;;;;;;;;;;;;;;;;;1021431;29;1394;-21
2021/11/14 02:30:27;;;;;;;;;;;;;;;;;;1021800;29;949;-21
2021/11/14 02:30:58;;;;;;;;;;;;;;;;;;1021730;29;962;-21
2021/11/14 02:31:29;;;;;;;;;;;;;;;;;;1019912;29;2061;-22
2021/11/14 02:31:59;;;;;;;;;;;;;;;;;;1021843;29;1025;-21
2021/11/14 02:32:29;;;;;;;;;;;;;;;;;;1021608;29;1017;-22
2021/11/14 02:33:00;;;;;;;;;;;;;;;;;;1021576;29;960;-21
2021/11/14 02:33:31;;;;;;;;;;;;;;;;;;1021767;29;951;-21
2021/11/14 02:34:02;;;;;;;;;;;;;;;;;;1016831;29;855;-22
2021/11/14 02:34:32;;;;;;;;;;;;;;;;;;1017018;29;1316;-22
2021/11/14 02:35:03;;;;;;;;;;;;;;;;;;1016990;29;1048;-22
2021/11/14 02:35:34;;;;;;;;;;;;;;;;;;1017176;29;748;-21
2021/11/14 02:36:06;;;;;;;;;;;;;;;;;;1021769;29;974;-21
2021/11/14 02:36:39;;;;;;;;;;;;;;;;;;1017473;29;1102;-21
2021/11/14 02:37:12;;;;;;;;;;;;;;;;;;1017349;29;923;-21
2021/11/14 02:37:43;;;;;;;;;;;;;;;;;;1017500;29;920;-21
2021/11/14 02:38:15;;;;;;;;;;;;;;;;;;1018307;29;845;-21
2021/11/14 02:38:48;;;;;;;;;;;;;;;;;;1021640;29;846;-21
2021/11/14 02:39:19;;;;;;;;;;;;;;;;;;1021585;29;934;-21
2021/11/14 02:39:49;;;;;;;;;;;;;;;;;;1021638;29;971;-21
2021/11/14 02:40:20;;;;;;;;;;;;;;;;;;1021461;29;1020;-21
2021/11/14 02:40:51;;;;;;;;;;;;;;;;;;1026379;28;1235;-21
2021/11/14 02:41:23;;;;;;;;;;;;;;;;;;1029658;28;1288;-22
2021/11/14 02:41:53;;;;;;;;;;;;;;;;;;1029601;28;1048;-21
2021/11/14 02:42:24;;;;;;;;;;;;;;;;;;1029619;28;1024;-21
2021/11/14 02:42:55;;;;;;;;;;;;;;;;;;1029785;28;1919;-21
2021/11/14 02:43:26;;;;;;;;;;;;;;;;;;1020429;29;1345;-22
2021/11/14 02:43:57;;;;;;;;;;;;;;;;;;1020868;29;1122;-23
2021/11/14 02:44:28;;;;;;;;;;;;;;;;;;1020956;29;1199;-21
2021/11/14 02:44:59;;;;;;;;;;;;;;;;;;1021361;28;938;-22
2021/11/14 02:45:29;;;;;;;;;;;;;;;;;;1029803;28;955;-20
2021/11/14 02:45:59;;;;;;;;;;;;;;;;;;1029705;28;1161;-21
2021/11/14 02:46:30;;;;;;;;;;;;;;;;;;1029374;28;958;-21
2021/11/14 02:47:00;;;;;;;;;;;;;;;;;;1024988;28;994;-22
2021/11/14 02:47:31;;;;;;;;;;;;;;;;;;1020840;29;1009;-21
2021/11/14 02:48:03;;;;;;;;;;;;;;;;;;1016834;29;1181;-21
2021/11/14 02:48:33;;;;;;;;;;;;;;;;;;1013070;29;1033;-22
2021/11/14 02:49:04;;;;;;;;;;;;;;;;;;1013273;29;905;-21
2021/11/14 02:49:35;;;;;;;;;;;;;;;;;;1021271;28;871;-21
2021/11/14 02:50:08;;;;;;;;;;;;;;;;;;1025277;28;945;-21
2021/11/14 02:50:39;;;;;;;;;;;;;;;;;;1020994;29;1044;-21
2021/11/14 02:51:15;;;;;;;;;;;;;;;;;;1020746;29;1029;-21
2021/11/14 02:51:46;;;;;;;;;;;;;;;;;;1020869;29;919;-23
2021/11/14 02:52:16;;;;;;;;;;;;;;;;;;1015035;29;986;-21
2021/11/14 02:52:47;;;;;;;;;;;;;;;;;;1020749;29;1381;-21
2021/11/14 02:53:18;;;;;;;;;;;;;;;;;;1024595;28;979;-21
2021/11/14 02:53:49;;;;;;;;;;;;;;;;;;1029562;28;1375;-22
2021/11/14 02:54:20;;;;;;;;;;;;;;;;;;1029338;28;1398;-21
2021/11/14 02:54:51;;;;;;;;;;;;;;;;;;1029632;28;1064;-21
2021/11/14 02:55:23;;;;;;;;;;;;;;;;;;1024639;28;1377;-22
2021/11/14 02:55:54;;;;;;;;;;;;;;;;;;1024771;28;1139;-21
2021/11/14 02:56:27;;;;;;;;;;;;;;;;;;1024962;28;1119;-22
2021/11/14 02:56:57;;;;;;;;;;;;;;;;;;1024935;28;1715;-21
2021/11/14 02:57:28;;;;;;;;;;;;;;;;;;1029467;28;1089;-21
2021/11/14 02:57:58;;;;;;;;;;;;;;;;;;1029751;28;887;-21
2021/11/14 02:58:29;;;;;;;;;;;;;;;;;;1029391;28;1171;-21
2021/11/14 02:59:01;;;;;;;;;;;;;;;;;;1029347;28;792;-21
2021/11/14 02:59:33;;;;;;;;;;;;;;;;;;1029441;28;1449;-22
2021/11/14 03:00:06;;;;;;;;;;;;;;;;;;1024743;28;1516;-21
2021/11/14 03:00:41;;;;;;;;;;;;;;;;;;1024819;28;1446;-21
2021/11/14 03:01:18;;;;;;;;;;;;;;;;;;1024837;28;1255;-22
2021/11/14 03:01:52;;;;;;;;;;;;;;;;;;1027239;28;1125;-21
2021/11/14 03:02:22;;;;;;;;;;;;;;;;;;1029183;28;1527;-21
2021/11/14 03:02:53;;;;;;;;;;;;;;;;;;1024813;28;1973;-21
2021/11/14 03:03:23;;;;;;;;;;;;;;;;;;1024751;28;1021;-22
2021/11/14 03:03:54;;;;;;;;;;;;;;;;;;1024937;28;1001;-20
2021/11/14 03:04:27;;;;;;;;;;;;;;;;;;1024822;28;890;-20
2021/11/14 03:04:57;;;;;;;;;;;;;;;;;;1029552;28;875;-22
2021/11/14 03:05:28;;;;;;;;;;;;;;;;;;1029530;28;899;-21
2021/11/14 03:05:58;;;;;;;;;;;;;;;;;;1029723;28;1005;-21
2021/11/14 03:06:30;;;;;;;;;;;;;;;;;;1029482;28;914;-22
2021/11/14 03:07:00;;;;;;;;;;;;;;;;;;1029559;28;1088;-22
2021/11/14 03:07:31;;;;;;;;;;;;;;;;;;1024506;28;1379;-22
2021/11/14 03:08:02;;;;;;;;;;;;;;;;;;1020581;29;1119;-22
2021/11/14 03:08:33;;;;;;;;;;;;;;;;;;1021046;29;948;-21
2021/11/14 03:09:04;;;;;;;;;;;;;;;;;;1020401;29;1009;-22
2021/11/14 03:09:34;;;;;;;;;;;;;;;;;;1017454;28;1087;-23
2021/11/14 03:10:05;;;;;;;;;;;;;;;;;;1025036;28;946;-22
2021/11/14 03:10:36;;;;;;;;;;;;;;;;;;1025225;28;936;-21
2021/11/14 03:11:07;;;;;;;;;;;;;;;;;;1021012;28;1039;-22
2021/11/14 03:11:38;;;;;;;;;;;;;;;;;;1024832;28;1580;-21
2021/11/14 03:12:08;;;;;;;;;;;;;;;;;;1024972;28;1050;-21
2021/11/14 03:12:40;;;;;;;;;;;;;;;;;;1017179;29;1028;-21
2021/11/14 03:13:12;;;;;;;;;;;;;;;;;;1004835;29;1171;-21
2021/11/14 03:13:43;;;;;;;;;;;;;;;;;;1001215;29;1273;-21
2021/11/14 03:14:13;;;;;;;;;;;;;;;;;;1001959;29;1008;-21
2021/11/14 03:14:44;;;;;;;;;;;;;;;;;;1009421;29;971;-21
2021/11/14 03:15:14;;;;;;;;;;;;;;;;;;1013146;29;1024;-21
2021/11/14 03:15:49;;;;;;;;;;;;;;;;;;1020429;29;1472;-21
2021/11/14 03:16:20;;;;;;;;;;;;;;;;;;1016771;29;992;-22
2021/11/14 03:16:51;;;;;;;;;;;;;;;;;;1018133;28;1073;-21
2021/11/14 03:17:22;;;;;;;;;;;;;;;;;;1024776;28;1284;-23
2021/11/14 03:17:53;;;;;;;;;;;;;;;;;;1021108;28;991;-20
2021/11/14 03:18:23;;;;;;;;;;;;;;;;;;1024665;28;975;-22
2021/11/14 03:18:55;;;;;;;;;;;;;;;;;;1024899;28;1008;-21
2021/11/14 03:19:25;;;;;;;;;;;;;;;;;;1024833;28;1110;-21
2021/11/14 03:19:55;;;;;;;;;;;;;;;;;;1029532;28;1040;-21
2021/11/14 03:20:26;;;;;;;;;;;;;;;;;;1029714;28;969;-21
2021/11/14 03:20:57;;;;;;;;;;;;;;;;;;1028831;28;1112;-22
2021/11/14 03:21:27;;;;;;;;;;;;;;;;;;1029484;28;985;-21
2021/11/14 03:21:57;;;;;;;;;;;;;;;;;;1029722;28;955;-22
2021/11/14 03:22:28;;;;;;;;;;;;;;;;;;1029254;28;922;-21
2021/11/14 03:22:58;;;;;;;;;;;;;;;;;;1029486;28;1902;-21
2021/11/14 03:23:29;;;;;;;;;;;;;;;;;;1029210;28;1268;-22
2021/11/14 03:23:59;;;;;;;;;;;;;;;;;;1029652;28;997;-21
2021/11/14 03:24:30;;;;;;;;;;;;;;;;;;1028548;28;1469;-22
2021/11/14 03:25:01;;;;;;;;;;;;;;;;;;1027973;28;1290;-21
2021/11/14 03:25:32;;;;;;;;;;;;;;;;;;1028497;28;1091;-22
2021/11/14 03:26:02;;;;;;;;;;;;;;;;;;1028903;28;1293;-20
2021/11/14 03:26:33;;;;;;;;;;;;;;;;;;1029465;28;1033;-22
2021/11/14 03:27:03;;;;;;;;;;;;;;;;;;1029661;28;855;-20
2021/11/14 03:27:34;;;;;;;;;;;;;;;;;;1024753;28;993;-21
2021/11/14 03:28:05;;;;;;;;;;;;;;;;;;1024740;28;880;-21
2021/11/14 03:28:35;;;;;;;;;;;;;;;;;;1024850;28;943;-21
2021/11/14 03:29:06;;;;;;;;;;;;;;;;;;1024857;28;1044;-22
2021/11/14 03:29:37;;;;;;;;;;;;;;;;;;1028675;28;950;-22
2021/11/14 03:30:07;;;;;;;;;;;;;;;;;;1028679;28;1417;-21
2021/11/14 03:30:38;;;;;;;;;;;;;;;;;;1028858;28;1290;-21
2021/11/14 03:31:09;;;;;;;;;;;;;;;;;;1028909;28;956;-21
2021/11/14 03:31:41;;;;;;;;;;;;;;;;;;1024578;28;1182;-21
2021/11/14 03:32:12;;;;;;;;;;;;;;;;;;1020921;29;990;-21
2021/11/14 03:32:43;;;;;;;;;;;;;;;;;;1020684;29;1214;-21
2021/11/14 03:33:14;;;;;;;;;;;;;;;;;;1020762;29;856;-22
2021/11/14 03:33:44;;;;;;;;;;;;;;;;;;1020954;28;1101;-22
2021/11/14 03:34:15;;;;;;;;;;;;;;;;;;1024361;28;1355;-21
2021/11/14 03:34:45;;;;;;;;;;;;;;;;;;1016674;29;1227;-22
2021/11/14 03:35:17;;;;;;;;;;;;;;;;;;1020990;29;1052;-22
2021/11/14 03:36:03;;;;;;;;;;;;;;;;;;1012577;29;1062;-22
2021/11/14 03:36:34;;;;;;;;;;;;;;;;;;1017311;29;966;-22
2021/11/14 03:37:15;;;;;;;;;;;;;;;;;;1020816;29;915;-22
2021/11/14 03:37:45;;;;;;;;;;;;;;;;;;1024454;28;1222;-21
2021/11/14 03:38:18;;;;;;;;;;;;;;;;;;1025103;28;999;-22
2021/11/14 03:38:53;;;;;;;;;;;;;;;;;;1024983;28;868;-21